createdAt,value
2022-09-28T00:01:25.756Z,0.93
2022-09-28T00:04:12.693Z,0.38
2022-09-28T00:07:00.328Z,0.50
2022-09-28T00:09:47.115Z,0.85
2022-09-28T00:12:34.580Z,0.28
2022-09-28T00:15:21.739Z,0.52
2022-09-28T00:18:08.523Z,0.68
2022-09-28T00:21:14.615Z,0.50
2022-09-28T00:24:12.527Z,0.25
2022-09-28T00:27:02.814Z,0.75
2022-09-28T00:29:49.585Z,0.50
2022-09-28T00:32:36.378Z,0.38
2022-09-28T00:35:23.155Z,0.30
2022-09-28T00:38:12.183Z,0.68
2022-09-28T00:40:59.604Z,0.57
2022-09-28T00:43:46.458Z,0.45
2022-09-28T00:46:35.441Z,0.70
2022-09-28T00:49:29.986Z,0.50
2022-09-28T00:52:28.905Z,0.70
2022-09-28T00:55:21.017Z,0.50
2022-09-28T00:58:11.743Z,0.47
2022-09-28T01:01:00.047Z,0.50
2022-09-28T01:03:48.689Z,0.40
2022-09-28T01:06:37.986Z,0.55
2022-09-28T01:09:27.235Z,0.47
2022-09-28T01:12:14.509Z,0.45
2022-09-28T01:15:03.438Z,0.90
2022-09-28T01:18:17.099Z,0.70
2022-09-28T01:21:20.214Z,0.80
2022-09-28T01:24:18.916Z,0.80
2022-09-28T01:27:26.831Z,0.60
2022-09-28T01:30:18.068Z,0.40
2022-09-28T01:33:14.002Z,0.40
2022-09-28T01:36:11.794Z,0.30
2022-09-28T01:39:05.743Z,0.52
2022-09-28T01:41:57.036Z,0.68
2022-09-28T01:44:49.514Z,0.20
2022-09-28T01:47:39.849Z,0.40
2022-09-28T01:50:30.191Z,0.40
2022-09-28T01:53:25.990Z,0.70
2022-09-28T01:56:50.242Z,0.60
2022-09-28T01:59:42.850Z,0.32
2022-09-28T02:02:48.621Z,0.60
2022-09-28T02:05:42.859Z,0.35
2022-09-28T02:08:42.065Z,0.80
2022-09-28T02:11:29.009Z,0.40
2022-09-28T02:14:18.081Z,0.45
2022-09-28T02:17:09.547Z,0.75
2022-09-28T02:19:56.448Z,0.20
2022-09-28T02:22:43.688Z,0.50
2022-09-28T02:25:39.685Z,0.47
2022-09-28T02:28:27.823Z,0.50
2022-09-28T02:31:14.860Z,0.50
2022-09-28T02:33:46.401Z,0.70
2022-09-28T02:36:13.338Z,0.47
2022-09-28T02:38:39.934Z,0.40
2022-09-28T02:41:27.514Z,0.40
2022-09-28T02:44:15.771Z,0.47
2022-09-28T02:47:03.694Z,0.30
2022-09-28T02:49:47.985Z,0.20
2022-09-28T02:52:57.943Z,0.20
2022-09-28T02:55:43.739Z,0.50
2022-09-28T02:58:48.068Z,0.30
2022-09-28T03:01:51.069Z,0.40
2022-09-28T03:04:36.214Z,0.50
2022-09-28T03:07:10.596Z,0.30
2022-09-28T03:09:44.662Z,0.20
2022-09-28T03:12:15.695Z,0.73
2022-09-28T03:14:45.732Z,0.60
2022-09-28T03:17:12.273Z,0.35
2022-09-28T03:19:38.887Z,0.45
2022-09-28T03:22:05.596Z,0.40
2022-09-28T03:24:32.091Z,1.15
2022-09-28T03:26:58.591Z,0.30
2022-09-28T03:29:25.137Z,0.38
2022-09-28T03:31:57.938Z,0.20
2022-09-28T03:34:26.946Z,0.50
2022-09-28T03:36:53.755Z,0.80
2022-09-28T03:39:20.254Z,0.10
2022-09-28T03:41:46.691Z,0.43
2022-09-28T03:44:13.706Z,0.20
2022-09-28T03:46:40.306Z,0.68
2022-09-28T03:49:09.873Z,0.52
2022-09-28T03:51:36.457Z,0.43
2022-09-28T03:54:02.993Z,0.28
2022-09-28T03:56:31.822Z,0.47
2022-09-28T03:58:58.365Z,0.30
2022-09-28T04:01:27.326Z,0.30
2022-09-28T04:03:55.865Z,0.30
2022-09-28T04:06:23.698Z,0.50
2022-09-28T04:08:50.225Z,0.40
2022-09-28T04:11:17.383Z,0.30
2022-09-28T04:13:50.184Z,0.63
2022-09-28T04:16:17.928Z,0.40
2022-09-28T04:18:55.539Z,0.60
2022-09-28T04:21:35.682Z,0.85
2022-09-28T04:24:12.776Z,0.60
2022-09-28T04:26:39.300Z,1.10
2022-09-28T04:29:18.042Z,0.30
2022-09-28T04:32:05.837Z,0.43
2022-09-28T04:34:38.000Z,0.60
2022-09-28T04:37:07.359Z,0.75
2022-09-28T04:39:33.850Z,0.60
2022-09-28T04:42:01.092Z,0.75
2022-09-28T04:44:28.178Z,0.40
2022-09-28T04:47:07.503Z,0.90
2022-09-28T04:50:07.787Z,0.47
2022-09-28T04:52:39.552Z,0.70
2022-09-28T04:55:06.845Z,0.73
2022-09-28T04:57:37.202Z,0.40
2022-09-28T05:00:08.674Z,0.60
2022-09-28T05:02:35.761Z,0.63
2022-09-28T05:05:21.090Z,0.88
2022-09-28T05:08:04.188Z,0.65
2022-09-28T05:10:30.796Z,0.52
2022-09-28T05:12:57.365Z,0.77
2022-09-28T05:15:28.844Z,0.98
2022-09-28T05:17:57.679Z,0.50
2022-09-28T05:20:42.088Z,0.70
2022-09-28T05:23:13.160Z,2.58
2022-09-28T05:25:42.051Z,0.60
2022-09-28T05:28:28.898Z,0.60
2022-09-28T05:31:14.595Z,1.65
2022-09-28T05:34:07.120Z,0.43
2022-09-28T05:36:36.115Z,0.55
2022-09-28T05:39:03.972Z,0.95
2022-09-28T05:41:30.785Z,0.68
2022-09-28T05:43:58.066Z,0.50
2022-09-28T05:46:24.581Z,1.10
2022-09-28T05:48:52.592Z,0.85
2022-09-28T05:51:21.438Z,1.02
2022-09-28T05:53:48.032Z,0.43
2022-09-28T05:56:16.203Z,0.95
2022-09-28T05:58:44.342Z,0.68
2022-09-28T06:01:11.570Z,0.93
2022-09-28T06:03:38.162Z,0.43
2022-09-28T06:06:04.786Z,1.05
2022-09-28T06:08:34.142Z,0.50
2022-09-28T06:11:14.397Z,0.60
2022-09-28T06:13:40.977Z,0.47
2022-09-28T06:16:08.519Z,0.75
2022-09-28T06:18:35.384Z,1.00
2022-09-28T06:21:33.970Z,0.75
2022-09-28T06:24:03.196Z,0.90
2022-09-28T06:26:30.118Z,0.68
2022-09-28T06:28:57.123Z,0.57
2022-09-28T06:31:23.959Z,1.10
2022-09-28T06:33:51.260Z,1.05
2022-09-28T06:36:18.642Z,0.93
2022-09-28T06:38:48.190Z,0.80
2022-09-28T06:41:15.603Z,1.02
2022-09-28T06:43:43.288Z,0.70
2022-09-28T06:46:14.101Z,0.77
2022-09-28T06:48:52.450Z,0.35
2022-09-28T06:51:28.470Z,0.68
2022-09-28T06:54:04.215Z,0.30
2022-09-28T06:56:38.915Z,0.73
2022-09-28T06:59:06.509Z,0.40
2022-09-28T07:01:34.396Z,0.85
2022-09-28T07:04:08.139Z,0.75
2022-09-28T07:07:12.811Z,0.68
2022-09-28T07:10:06.257Z,0.40
2022-09-28T07:13:15.862Z,0.40
2022-09-28T07:15:55.925Z,0.57
2022-09-28T07:18:23.485Z,0.65
2022-09-28T07:20:54.672Z,0.63
2022-09-28T07:23:21.792Z,0.80
2022-09-28T07:26:23.436Z,0.70
2022-09-28T07:29:13.558Z,0.52
2022-09-28T07:32:06.159Z,0.45
2022-09-28T07:34:58.912Z,0.52
2022-09-28T07:37:56.309Z,1.17
2022-09-28T07:40:45.099Z,0.50
2022-09-28T07:43:14.755Z,1.60
2022-09-28T07:45:43.431Z,0.57
2022-09-28T07:48:10.013Z,0.30
2022-09-28T07:50:57.292Z,0.40
2022-09-28T07:53:38.124Z,0.25
2022-09-28T07:56:30.938Z,0.35
2022-09-28T07:59:05.551Z,0.52
2022-09-28T08:01:50.632Z,0.60
2022-09-28T08:04:17.823Z,0.73
2022-09-28T08:06:48.228Z,0.32
2022-09-28T08:09:14.799Z,0.57
2022-09-28T08:12:07.790Z,1.03
2022-09-28T08:15:04.463Z,0.73
2022-09-28T08:17:47.056Z,0.45
2022-09-28T08:20:35.234Z,0.50
2022-09-28T08:23:09.146Z,0.68
2022-09-28T08:25:38.257Z,0.50
2022-09-28T08:28:07.260Z,0.50
2022-09-28T08:30:40.548Z,0.55
2022-09-28T08:33:25.500Z,0.40
2022-09-28T08:36:10.586Z,0.75
2022-09-28T08:38:55.888Z,0.40
2022-09-28T08:41:52.723Z,0.70
2022-09-28T08:48:01.020Z,0.60
2022-09-28T08:51:41.693Z,0.55
2022-09-28T08:54:56.631Z,0.65
2022-09-28T08:57:49.363Z,0.63
2022-09-28T09:00:32.067Z,0.43
2022-09-28T09:02:59.172Z,0.65
2022-09-28T09:05:52.026Z,0.88
2022-09-28T09:09:03.319Z,0.80
2022-09-28T09:11:36.901Z,0.70
2022-09-28T09:14:21.904Z,0.68
2022-09-28T09:17:01.596Z,0.73
2022-09-28T09:19:52.374Z,1.00
2022-09-28T09:22:57.525Z,0.77
2022-09-28T09:25:28.310Z,0.73
2022-09-28T09:28:28.494Z,0.55
2022-09-28T09:31:13.572Z,0.70
2022-09-28T09:34:03.452Z,0.95
2022-09-28T09:37:23.110Z,0.57
2022-09-28T09:40:24.815Z,0.38
2022-09-28T09:43:31.530Z,0.40
2022-09-28T09:46:23.695Z,0.40
2022-09-28T09:49:20.500Z,0.73
2022-09-28T09:52:03.097Z,0.50
2022-09-28T09:54:37.761Z,0.50
2022-09-28T09:57:19.462Z,0.40
2022-09-28T10:00:13.063Z,0.40
2022-09-28T10:02:51.963Z,0.45
2022-09-28T10:05:34.766Z,0.30
2022-09-28T10:08:14.319Z,0.30
2022-09-28T10:10:51.404Z,0.30
2022-09-28T10:13:19.874Z,0.30
2022-09-28T10:15:47.954Z,0.28
2022-09-28T10:18:21.506Z,0.40
2022-09-28T10:21:09.363Z,0.30
2022-09-28T10:24:05.014Z,0.30
2022-09-28T10:26:42.494Z,0.40
2022-09-28T10:29:17.622Z,0.40
2022-09-28T10:31:48.341Z,0.20
2022-09-28T10:34:35.497Z,0.40
2022-09-28T10:37:11.041Z,0.40
2022-09-28T10:40:30.638Z,0.50
2022-09-28T10:43:33.498Z,0.52
2022-09-28T10:46:23.349Z,0.50
2022-09-28T10:48:58.475Z,0.50
2022-09-28T10:51:49.686Z,0.40
2022-09-28T10:54:24.811Z,0.47
2022-09-28T10:56:53.765Z,0.73
2022-09-28T10:59:30.595Z,0.47
2022-09-28T11:02:34.904Z,0.40
2022-09-28T11:05:24.641Z,0.50
2022-09-28T11:07:56.879Z,0.22
2022-09-28T11:10:32.653Z,0.52
2022-09-28T11:13:09.896Z,0.38
2022-09-28T11:15:43.311Z,0.40
2022-09-28T11:18:32.240Z,0.40
2022-09-28T11:21:12.128Z,1.02
2022-09-28T11:23:46.728Z,0.68
2022-09-28T11:26:20.458Z,0.50
2022-09-28T11:28:51.878Z,0.50
2022-09-28T11:31:28.824Z,0.60
2022-09-28T11:34:41.828Z,0.40
2022-09-28T11:38:00.121Z,0.45
2022-09-28T11:40:58.467Z,0.40
2022-09-28T11:43:47.949Z,0.60
2022-09-28T11:46:29.672Z,0.60
2022-09-28T11:49:21.775Z,0.47
2022-09-28T11:51:55.045Z,0.38
2022-09-28T11:54:40.523Z,0.63
2022-09-28T11:57:18.068Z,0.55
2022-09-28T12:00:10.855Z,0.30
2022-09-28T12:02:54.065Z,0.55
2022-09-28T12:05:31.880Z,0.73
2022-09-28T12:08:13.514Z,0.52
2022-09-28T12:11:20.440Z,0.68
2022-09-28T12:14:22.469Z,0.55
2022-09-28T12:17:07.898Z,0.30
2022-09-28T12:20:03.930Z,0.68
2022-09-28T12:22:40.501Z,0.30
2022-09-28T12:25:16.066Z,0.40
2022-09-28T12:27:56.023Z,0.63
2022-09-28T12:30:26.915Z,0.50
2022-09-28T12:33:01.703Z,0.43
2022-09-28T12:35:59.194Z,0.55
2022-09-28T12:39:24.011Z,0.65
2022-09-28T12:42:15.014Z,0.40
2022-09-28T12:45:04.096Z,0.30
2022-09-28T12:47:54.965Z,0.50
2022-09-28T12:50:42.075Z,0.25
2022-09-28T12:53:39.901Z,0.55
2022-09-28T12:56:35.415Z,0.50
2022-09-28T12:59:30.740Z,0.40
2022-09-28T13:02:12.171Z,0.47
2022-09-28T13:05:18.742Z,0.30
2022-09-28T13:07:50.838Z,0.60
2022-09-28T13:10:26.246Z,0.33
2022-09-28T13:13:39.516Z,0.40
2022-09-28T13:16:33.063Z,0.68
2022-09-28T13:19:24.063Z,0.65
2022-09-28T13:22:19.013Z,0.50
2022-09-28T13:24:49.630Z,0.50
2022-09-28T13:27:24.441Z,0.50
2022-09-28T13:29:51.972Z,0.40
2022-09-28T13:32:19.342Z,0.60
2022-09-28T13:34:50.441Z,0.30
2022-09-28T13:37:16.889Z,0.88
2022-09-28T13:39:46.102Z,0.40
2022-09-28T13:42:25.013Z,0.57
2022-09-28T13:45:18.434Z,0.35
2022-09-28T13:50:52.946Z,0.43
2022-09-28T13:53:44.064Z,0.80
2022-09-28T13:56:28.150Z,0.50
2022-09-28T13:59:34.840Z,0.68
2022-09-28T14:02:28.621Z,0.45
2022-09-28T14:05:04.977Z,0.43
2022-09-28T14:07:34.479Z,0.50
2022-09-28T14:10:23.558Z,0.68
2022-09-28T14:12:55.752Z,0.50
2022-09-28T14:15:37.497Z,0.70
2022-09-28T14:18:33.088Z,0.75
2022-09-28T14:21:02.516Z,0.50
2022-09-28T14:24:02.650Z,0.50
2022-09-28T14:26:56.125Z,0.38
2022-09-28T14:32:15.353Z,0.73
2022-09-28T14:34:45.231Z,1.17
2022-09-28T14:37:47.188Z,0.50
2022-09-28T14:40:38.612Z,0.60
2022-09-28T14:43:26.213Z,0.85
2022-09-28T14:46:08.303Z,0.70
2022-09-28T14:48:53.859Z,1.27
2022-09-28T14:51:26.413Z,0.50
2022-09-28T14:54:05.259Z,0.70
2022-09-28T14:56:38.868Z,0.82
2022-09-28T14:59:06.527Z,0.57
2022-09-28T15:01:35.398Z,0.90
2022-09-28T15:04:07.023Z,0.65
2022-09-28T15:06:47.272Z,0.80
2022-09-28T15:09:28.754Z,0.80
2022-09-28T15:12:22.431Z,0.52
2022-09-28T15:14:56.260Z,0.30
2022-09-28T15:17:27.276Z,1.05
2022-09-28T15:20:03.632Z,0.45
2022-09-28T15:22:30.319Z,0.32
2022-09-28T15:25:02.978Z,0.38
2022-09-28T15:27:41.163Z,0.40
2022-09-28T15:30:21.979Z,0.50
2022-09-28T15:32:51.858Z,0.40
2022-09-28T15:35:21.756Z,0.60
2022-09-28T15:37:52.739Z,0.80
2022-09-28T15:40:25.371Z,0.50
2022-09-28T15:42:59.094Z,0.43
2022-09-28T15:45:30.682Z,0.60
2022-09-28T15:48:27.296Z,0.60
2022-09-28T15:51:01.269Z,0.52
2022-09-28T15:53:27.942Z,0.80
2022-09-28T15:56:01.637Z,0.50
2022-09-28T15:58:28.942Z,1.23
2022-09-28T16:01:37.688Z,0.57
2022-09-28T16:04:47.940Z,0.68
2022-09-28T16:07:19.974Z,0.80
2022-09-28T16:10:04.676Z,1.07
2022-09-28T16:12:44.380Z,1.05
2022-09-28T16:15:22.023Z,0.57
2022-09-28T16:18:21.934Z,1.42
2022-09-28T16:20:51.418Z,0.60
2022-09-28T16:23:21.691Z,0.90
2022-09-28T16:26:19.777Z,0.50
2022-09-28T16:28:51.990Z,0.90
2022-09-28T16:31:18.497Z,1.15
2022-09-28T16:33:53.996Z,0.65
2022-09-28T16:36:22.350Z,0.90
2022-09-28T16:38:51.294Z,0.60
2022-09-28T16:41:26.002Z,0.88
2022-09-28T16:44:02.045Z,0.75
2022-09-28T16:46:36.230Z,0.65
2022-09-28T16:49:03.744Z,1.00
2022-09-28T16:51:30.222Z,1.17
2022-09-28T16:54:29.949Z,0.70
2022-09-28T16:56:56.487Z,0.82
2022-09-28T16:59:23.117Z,0.75
2022-09-28T17:01:49.639Z,0.80
2022-09-28T17:04:37.068Z,1.20
2022-09-28T17:07:23.881Z,1.05
2022-09-28T17:10:45.064Z,1.30
2022-09-28T17:13:37.373Z,1.77
2022-09-28T17:16:50.970Z,1.63
2022-09-28T17:19:35.560Z,1.92
2022-09-28T17:22:24.808Z,1.10
2022-09-28T17:25:12.811Z,1.67
2022-09-28T17:28:00.613Z,1.45
2022-09-28T17:30:47.870Z,1.52
2022-09-28T17:33:34.646Z,2.40
2022-09-28T17:36:22.337Z,2.00
2022-09-28T17:39:12.527Z,1.27
2022-09-28T17:41:59.372Z,1.35
2022-09-28T17:44:46.167Z,1.40
2022-09-28T17:47:34.442Z,1.55
2022-09-28T17:50:25.291Z,1.60
2022-09-28T17:53:12.482Z,1.50
2022-09-28T17:55:59.288Z,1.40
2022-09-28T17:58:47.730Z,1.10
2022-09-28T18:01:38.627Z,1.55
2022-09-28T18:04:50.049Z,1.65
2022-09-28T18:07:34.298Z,1.20
2022-09-28T18:10:23.927Z,1.60
2022-09-28T18:13:10.870Z,1.60
2022-09-28T18:16:00.269Z,1.92
2022-09-28T18:18:47.644Z,1.63
2022-09-28T18:21:34.475Z,1.98
2022-09-28T18:24:23.686Z,2.17
2022-09-28T18:27:10.468Z,1.75
2022-09-28T18:29:57.452Z,1.55
2022-09-28T18:32:44.239Z,1.83
2022-09-28T18:35:30.994Z,1.42
2022-09-28T18:38:18.433Z,1.35
2022-09-28T18:41:16.495Z,1.92
2022-09-28T18:44:05.751Z,0.88
2022-09-28T18:46:52.558Z,1.02
2022-09-28T18:49:42.513Z,1.83
2022-09-28T18:52:31.599Z,1.70
2022-09-28T18:55:20.550Z,2.00
2022-09-28T18:58:09.253Z,1.77
2022-09-28T19:01:08.642Z,1.88
2022-09-28T19:04:05.790Z,1.50
2022-09-28T19:06:54.267Z,1.23
2022-09-28T19:09:43.904Z,2.65
2022-09-28T19:12:31.968Z,1.60
2022-09-28T19:15:22.422Z,1.35
2022-09-28T19:18:09.225Z,2.15
2022-09-28T19:20:56.084Z,1.65
2022-09-28T19:23:49.047Z,1.50
2022-09-28T19:29:25.266Z,1.70
2022-09-28T19:32:12.603Z,1.35
2022-09-28T19:34:59.376Z,1.45
2022-09-28T19:37:46.640Z,1.52
2022-09-28T19:40:36.791Z,1.65
2022-09-28T19:43:24.668Z,1.70
2022-09-28T19:46:13.134Z,1.98
2022-09-28T19:49:01.659Z,1.98
2022-09-28T19:52:13.836Z,1.67
2022-09-28T19:55:01.018Z,1.38
2022-09-28T19:57:47.972Z,1.88
2022-09-28T20:00:36.808Z,1.38
2022-09-28T20:03:25.480Z,1.25
2022-09-28T20:06:17.126Z,2.10
2022-09-28T20:09:05.233Z,2.13
2022-09-28T20:11:53.017Z,2.17
2022-09-28T20:14:40.588Z,1.13
2022-09-28T20:17:27.565Z,1.55
2022-09-28T20:20:14.426Z,2.20
2022-09-28T20:23:01.809Z,1.40
2022-09-28T20:25:52.293Z,1.75
2022-09-28T20:28:39.293Z,1.73
2022-09-28T20:31:26.201Z,2.22
2022-09-28T20:34:13.223Z,2.13
2022-09-28T20:37:00.100Z,1.38
2022-09-28T20:39:47.060Z,2.55
2022-09-28T20:42:33.892Z,1.27
2022-09-28T20:45:20.650Z,2.50
2022-09-28T20:48:07.458Z,2.15
2022-09-28T20:51:11.957Z,1.52
2022-09-28T20:53:59.091Z,1.60
2022-09-28T20:56:47.971Z,1.52
2022-09-28T20:59:34.754Z,1.95
2022-09-28T21:02:22.295Z,1.17
2022-09-28T21:05:09.294Z,1.58
2022-09-28T21:07:56.058Z,1.63
2022-09-28T21:10:44.356Z,1.90
2022-09-28T21:13:33.428Z,1.00
2022-09-28T21:16:20.747Z,1.33
2022-09-28T21:19:07.540Z,1.50
2022-09-28T21:21:54.384Z,1.33
2022-09-28T21:24:41.229Z,1.35
2022-09-28T21:27:27.998Z,1.67
2022-09-28T21:30:15.096Z,2.03
2022-09-28T21:33:01.898Z,1.77
2022-09-28T21:35:48.648Z,1.92
2022-09-28T21:38:35.624Z,1.17
2022-09-28T21:41:23.371Z,1.77
2022-09-28T21:44:10.556Z,1.23
2022-09-28T21:46:57.350Z,1.27
2022-09-28T21:49:44.156Z,1.13
2022-09-28T21:52:31.151Z,1.48
2022-09-28T21:55:19.547Z,1.52
2022-09-28T21:58:06.317Z,1.42
2022-09-28T22:01:01.159Z,0.98
2022-09-28T22:03:50.467Z,1.25
2022-09-28T22:06:37.343Z,0.80
2022-09-28T22:09:24.249Z,0.95
2022-09-28T22:12:11.707Z,2.58
2022-09-28T22:14:58.524Z,1.70
2022-09-28T22:17:45.322Z,1.50
2022-09-28T22:20:32.073Z,1.30
2022-09-28T22:23:18.846Z,1.20
2022-09-28T22:26:08.187Z,1.50
2022-09-28T22:28:57.452Z,1.88
2022-09-28T22:31:44.280Z,1.55
2022-09-28T22:34:31.749Z,1.70
2022-09-28T22:37:19.065Z,1.65
2022-09-28T22:40:06.245Z,1.20
2022-09-28T22:42:52.988Z,1.35
2022-09-28T22:45:39.838Z,1.88
2022-09-28T22:48:26.595Z,1.92
2022-09-28T22:51:15.800Z,1.88
2022-09-28T22:54:02.611Z,1.98
2022-09-28T22:56:49.398Z,1.05
2022-09-28T22:59:38.605Z,2.78
2022-09-28T23:02:25.524Z,1.83
2022-09-28T23:05:12.419Z,1.70
2022-09-28T23:07:59.200Z,1.92
2022-09-28T23:10:46.686Z,3.35
2022-09-28T23:13:35.013Z,2.15
2022-09-28T23:16:24.723Z,2.80
2022-09-28T23:19:11.619Z,2.13
2022-09-28T23:21:59.209Z,2.15
2022-09-28T23:24:45.995Z,2.25
2022-09-28T23:27:32.891Z,2.53
2022-09-28T23:30:20.761Z,2.17
2022-09-28T23:33:15.865Z,1.60
2022-09-28T23:36:02.864Z,1.58
2022-09-28T23:38:52.897Z,2.05
2022-09-28T23:41:40.207Z,1.67
2022-09-28T23:44:31.230Z,1.13
2022-09-28T23:47:18.005Z,1.48
2022-09-28T23:50:06.380Z,1.73
2022-09-28T23:52:53.129Z,1.73
2022-09-28T23:55:41.402Z,1.67
2022-09-28T23:58:28.526Z,1.65
